| time (UTC) | temp F | wind direction | speed knots | gust knots | rain 1hr in | rain 24hr in | rain mn in | humidity % | barometer mb |
| 20260509000009 | 61 | 235 | 0.9 | 7.0 | 0.00 | 0.00 | 0.00 | 39 | 1006.4 |
| 20260508234517 | 61 | 227 | 1.7 | 8.7 | 0.00 | 0.00 | 0.00 | 38 | 1006.4 |
| 20260508233022 | 61 | 216 | 2.6 | 8.7 | 0.00 | 0.00 | 0.00 | 38 | 1006.3 |
| 20260508230047 | 63 | 246 | 1.7 | 7.8 | 0.00 | 0.00 | 0.00 | 36 | 1006.3 |
| 20260508224538 | 65 | 251 | 0.9 | 6.1 | 0.00 | 0.00 | 0.00 | 35 | 1006.3 |
| 20260508223027 | 65 | 227 | 3.5 | 9.6 | 0.00 | 0.00 | 0.00 | 35 | 1006.4 |
| 20260508221524 | 64 | 275 | 1.7 | 6.1 | 0.00 | 0.00 | 0.00 | 39 | 1006.6 |
| 20260508214527 | 64 | 275 | 3.5 | 7.0 | 0.00 | 0.00 | 0.00 | 37 | 1006.7 |
| 20260508213027 | 64 | 262 | 2.6 | 6.1 | 0.00 | 0.00 | 0.00 | 38 | 1006.8 |
| 20260508211525 | 63 | 248 | 2.6 | 10.4 | 0.00 | 0.00 | 0.00 | 36 | 1006.9 |
| 20260508210026 | 65 | 224 | 3.5 | 7.8 | 0.00 | 0.00 | 0.00 | 35 | 1006.9 |
| 20260508204526 | 64 | 240 | 2.6 | 11.3 | 0.00 | 0.00 | 0.00 | 34 | 1007.2 |
| 20260508203027 | 65 | 217 | 0.9 | 6.1 | 0.00 | 0.00 | 0.00 | 36 | 1007.2 |
| 20260508201520 | 64 | 227 | 2.6 | 12.2 | 0.00 | 0.00 | 0.00 | 37 | 1007.5 |
| 20260508194503 | 65 | 250 | 1.7 | 9.6 | 0.00 | 0.00 | 0.00 | 37 | 1008.0 |
| 20260508181507 | 63 | 158 | 1.7 | 5.2 | 0.00 | 0.00 | 0.00 | 38 | 1009.1 |
| 20260508180006 | 62 | 343 | 1.7 | 7.8 | 0.00 | 0.00 | 0.00 | 39 | 1009.3 |
| 20260508171507 | 60 | 271 | 1.7 | 7.8 | 0.00 | 0.00 | 0.00 | 37 | 1010.0 |
| 20260508170005 | 61 | 271 | 1.7 | 7.8 | 0.00 | 0.00 | 0.00 | 41 | 1010.2 |
| 20260508164504 | 59 | 182 | 1.7 | 7.8 | 0.00 | 0.00 | 0.00 | 42 | 1010.5 |
| 20260508161503 | 59 | 261 | 1.7 | 7.0 | 0.00 | 0.00 | 0.00 | 45 | 1010.7 |
| 20260508160006 | 58 | 155 | 0.9 | 6.1 | 0.00 | 0.00 | 0.00 | 48 | 1010.9 |
| 20260508154506 | 57 | 313 | 0.9 | 7.8 | 0.00 | 0.00 | 0.00 | 48 | 1011.0 |
| 20260508153006 | 56 | 227 | 0.9 | 7.8 | 0.00 | 0.00 | 0.00 | 48 | 1011.2 |
| 20260508150009 | 54 | 140 | 0.9 | 6.1 | 0.00 | 0.00 | 0.00 | 51 | 1011.5 |
| 20260508144505 | 54 | 19 | 0.9 | 4.3 | 0.00 | 0.00 | 0.00 | 53 | 1011.5 |
| 20260508143006 | 54 | 97 | 1.7 | 6.1 | 0.00 | 0.00 | 0.00 | 53 | 1011.6 |
| 20260508141511 | 53 | 333 | 2.6 | 4.3 | 0.00 | 0.00 | 0.00 | 56 | 1011.8 |
| 20260508134509 | 52 | 27 | 0.0 | 2.6 | 0.00 | 0.00 | 0.00 | 63 | 1011.9 |
| 20260508133010 | 51 | 51 | 0.9 | 2.6 | 0.00 | 0.00 | 0.00 | 67 | 1011.9 |
| 20260508131508 | 50 | 59 | 0.0 | 4.3 | 0.00 | 0.00 | 0.00 | 72 | 1011.9 |
| 20260508130009 | 49 | 88 | 0.9 | 2.6 | 0.00 | 0.00 | 0.00 | 74 | 1011.9 |
| 20260508124519 | 49 | 138 | 0.0 | 2.6 | 0.00 | 0.00 | 0.00 | 75 | 1011.9 |
| 20260508123013 | 48 | 286 | 0.0 | 1.7 | 0.00 | 0.00 | 0.00 | 79 | 1011.7 |
| 20260508121513 | 47 | 192 | 0.9 | 1.7 | 0.00 | 0.00 | 0.00 | 85 | 1011.6 |
| 20260508120010 | 43 | 216 | 0.0 | 0.0 | 0.00 | 0.00 | 0.00 | 91 | 1011.5 |
| 20260508114510 | 41 | 216 | 0.0 | 0.0 | 0.00 | 0.00 | 0.00 | 93 | 1011.3 |
| 20260508111511 | 36 | 216 | 0.0 | 0.0 | 0.00 | 0.00 | 0.00 | 92 | 1010.9 |
| 20260508103014 | 35 | 216 | 0.0 | 0.0 | 0.00 | 0.00 | 0.00 | 90 | 1010.7 |
| 20260508101516 | 35 | 216 | 0.0 | 0.0 | 0.00 | 0.00 | 0.00 | 89 | 1010.7 |
| 20260508100004 | 36 | 216 | 0.0 | 0.0 | 0.00 | 0.00 | 0.00 | 89 | 1010.6 |
| 20260508094505 | 36 | 216 | 0.0 | 0.0 | 0.00 | 0.00 | 0.00 | 89 | 1010.7 |
| 20260508093010 | 36 | 216 | 0.0 | 0.0 | 0.00 | 0.00 | 0.00 | 87 | 1010.7 |
| 20260508090019 | 38 | 216 | 0.0 | 0.0 | 0.00 | 0.00 | 0.00 | 87 | 1010.8 |
| 20260508083011 | 40 | 216 | 0.0 | 0.9 | 0.00 | 0.00 | 0.00 | 86 | 1010.8 |
| 20260508074521 | 41 | 216 | 0.0 | 0.0 | 0.00 | 0.00 | 0.00 | 84 | 1011.0 |
| 20260508070016 | 42 | 244 | 0.0 | 0.9 | 0.00 | 0.00 | 0.00 | 82 | 1011.3 |
| 20260508064527 | 43 | 244 | 0.0 | 1.7 | 0.00 | 0.00 | 0.00 | 82 | 1011.2 |
| 20260508063026 | 43 | 236 | 0.0 | 1.7 | 0.00 | 0.00 | 0.00 | 81 | 1011.2 |
| 20260508061508 | 43 | 220 | 0.0 | 2.6 | 0.00 | 0.00 | 0.00 | 81 | 1011.2 |
| 20260508060012 | 42 | 221 | 0.0 | 1.7 | 0.00 | 0.00 | 0.00 | 81 | 1011.3 |
| 20260508054519 | 42 | 220 | 0.0 | 0.9 | 0.00 | 0.00 | 0.00 | 80 | 1011.4 |
| 20260508053031 | 42 | 220 | 0.0 | 0.9 | 0.00 | 0.00 | 0.00 | 79 | 1011.4 |
| 20260508051522 | 42 | 217 | 0.0 | 0.0 | 0.00 | 0.00 | 0.00 | 79 | 1011.4 |
| 20260508050012 | 42 | 217 | 0.0 | 0.9 | 0.00 | 0.00 | 0.00 | 76 | 1011.3 |
| 20260508044512 | 43 | 198 | 0.0 | 0.9 | 0.00 | 0.00 | 0.00 | 75 | 1011.3 |
| 20260508043018 | 43 | 198 | 0.0 | 0.9 | 0.00 | 0.00 | 0.00 | 73 | 1011.3 |
| 20260508041521 | 44 | 198 | 0.0 | 0.9 | 0.00 | 0.00 | 0.00 | 70 | 1011.3 |
| 20260508040025 | 46 | 198 | 0.0 | 0.9 | 0.00 | 0.00 | 0.00 | 68 | 1011.3 |
| 20260508034528 | 47 | 198 | 0.0 | 1.7 | 0.00 | 0.00 | 0.00 | 66 | 1011.2 |
| 20260508033023 | 47 | 216 | 0.0 | 3.5 | 0.00 | 0.00 | 0.00 | 65 | 1011.2 |
| 20260508031523 | 47 | 215 | 0.9 | 2.6 | 0.00 | 0.00 | 0.00 | 65 | 1011.4 |
| 20260508030022 | 47 | 200 | 0.0 | 0.0 | 0.00 | 0.00 | 0.00 | 64 | 1011.5 |
| 20260508024525 | 48 | 198 | 0.0 | 1.7 | 0.00 | 0.00 | 0.00 | 62 | 1011.5 |
| 20260508023031 | 48 | 219 | 0.0 | 2.6 | 0.00 | 0.00 | 0.00 | 61 | 1011.5 |
| 20260508021530 | 49 | 198 | 0.0 | 2.6 | 0.00 | 0.00 | 0.00 | 59 | 1011.4 |
| 20260508020004 | 50 | 246 | 0.9 | 5.2 | 0.00 | 0.00 | 0.00 | 56 | 1011.3 |
| 20260508014509 | 50 | 238 | 1.7 | 9.6 | 0.00 | 0.00 | 0.00 | 54 | 1011.4 |
| 20260508013009 | 49 | 183 | 3.5 | 10.4 | 0.00 | 0.00 | 0.00 | 55 | 1011.3 |
| 20260508011522 | 49 | 231 | 0.0 | 2.6 | 0.00 | 0.00 | 0.00 | 54 | 1011.0 |
| 20260508010036 | 49 | 269 | 0.0 | 2.6 | 0.00 | 0.00 | 0.00 | 51 | 1010.9 |
| 20260508004505 | 50 | 285 | 0.0 | 0.0 | 0.00 | 0.00 | 0.00 | 51 | 1010.7 |
| 20260508003007 | 50 | 285 | 0.0 | 1.7 | 0.00 | 0.00 | 0.00 | 50 | 1010.8 |
| 20260508001515 | 51 | 290 | 0.0 | 4.3 | 0.00 | 0.00 | 0.00 | 49 | 1010.8 |